Time;durP1;ratioP1;P1;durP2;ratioP2;P2;SDS_P1;SDS_P2;PMS_P1;PMS_P2;Temp;Humidity;BMP_temperature;BMP_pressure;BME280_temperature;BME280_humidity;BME280_pressure;Samples;Min_cycle;Max_cycle;Signal;HPM_P1;HPM_P2
2021/08/31 00:01:15;;;;;;;;;;;13.20;99.90;;;;;;6275302;22;19937;-90
2021/08/31 00:04:05;;;;;;;;;;;13.10;99.90;;;;;;6276477;22;19942;-90
2021/08/31 00:06:52;;;;;;;;;;;13.10;99.90;;;;;;6278214;22;19930;-89
2021/08/31 00:09:42;;;;;;;;;;;13.10;99.90;;;;;;6277270;22;20033;-90
2021/08/31 00:12:29;;;;;;;;;;;13.10;99.90;;;;;;6273721;22;19950;-92
2021/08/31 00:15:16;;;;;;;;;;;13.20;99.90;;;;;;6276647;22;19927;-93
2021/08/31 00:18:05;;;;;;;;;;;13.20;99.90;;;;;;6251494;22;19923;-91
2021/08/31 00:20:52;;;;;;;;;;;13.20;99.90;;;;;;6275593;22;20360;-91
2021/08/31 00:23:39;;;;;;;;;;;13.20;99.90;;;;;;6253379;22;19985;-91
2021/08/31 00:26:26;;;;;;;;;;;13.20;99.90;;;;;;6276439;22;19973;-91
2021/08/31 00:29:14;;;;;;;;;;;13.20;99.90;;;;;;6252950;22;20168;-90
2021/08/31 00:32:01;;;;;;;;;;;13.20;99.90;;;;;;6275999;22;19981;-90
2021/08/31 00:34:48;;;;;;;;;;;13.20;99.90;;;;;;6252802;22;19982;-90
2021/08/31 00:37:37;;;;;;;;;;;13.20;99.90;;;;;;6275203;22;19973;-91
2021/08/31 00:40:24;;;;;;;;;;;13.20;99.90;;;;;;6275530;22;20378;-92
2021/08/31 00:43:12;;;;;;;;;;;13.20;99.90;;;;;;6277440;22;20207;-91
2021/08/31 00:45:59;;;;;;;;;;;13.20;99.90;;;;;;6252215;22;19931;-89
2021/08/31 00:48:50;;;;;;;;;;;13.30;99.90;;;;;;6287762;22;19919;-90
2021/08/31 00:51:37;;;;;;;;;;;13.30;99.90;;;;;;6255318;22;19963;-91
2021/08/31 00:54:25;;;;;;;;;;;13.30;99.90;;;;;;6278665;22;19907;-91
2021/08/31 00:57:13;;;;;;;;;;;13.30;99.90;;;;;;6278272;22;20414;-91
2021/08/31 01:00:01;;;;;;;;;;;13.30;99.90;;;;;;6279365;22;19926;-91
2021/08/31 01:02:58;;;;;;;;;;;13.20;99.90;;;;;;6276483;22;19929;-92
2021/08/31 01:05:46;;;;;;;;;;;13.20;99.90;;;;;;6235558;22;19919;-91
2021/08/31 01:08:34;;;;;;;;;;;13.20;99.90;;;;;;6278458;22;20275;-91
2021/08/31 01:11:22;;;;;;;;;;;13.20;99.90;;;;;;6285907;22;19994;-92
2021/08/31 01:14:09;;;;;;;;;;;13.20;99.90;;;;;;6258437;22;19923;-93
2021/08/31 01:16:58;;;;;;;;;;;13.30;99.90;;;;;;6277679;22;19981;-91
2021/08/31 01:19:47;;;;;;;;;;;13.30;99.90;;;;;;6256031;22;19939;-92
2021/08/31 01:22:34;;;;;;;;;;;13.30;99.90;;;;;;6256703;22;19947;-93
2021/08/31 01:28:46;;;;;;;;;;;13.30;99.90;;;;;;6278805;22;20357;-91
2021/08/31 01:31:33;;;;;;;;;;;13.30;99.90;;;;;;6256009;22;19923;-91
2021/08/31 01:34:22;;;;;;;;;;;13.30;99.90;;;;;;6264222;22;19920;-91
2021/08/31 01:37:11;;;;;;;;;;;13.30;99.90;;;;;;6271825;22;19914;-91
2021/08/31 01:40:01;;;;;;;;;;;13.30;99.90;;;;;;6288997;22;20218;-91
2021/08/31 01:43:13;;;;;;;;;;;13.30;99.90;;;;;;6259770;22;19930;-89
2021/08/31 01:46:01;;;;;;;;;;;13.30;99.90;;;;;;6272808;22;19919;-92
2021/08/31 01:48:55;;;;;;;;;;;13.30;99.90;;;;;;6290444;22;19969;-92
2021/08/31 01:52:03;;;;;;;;;;;13.30;99.90;;;;;;6260075;22;20061;-92
2021/08/31 01:54:53;;;;;;;;;;;13.20;99.90;;;;;;6256647;22;20008;-92
2021/08/31 01:57:43;;;;;;;;;;;13.20;99.90;;;;;;6237545;22;19930;-91
2021/08/31 02:00:34;;;;;;;;;;;13.20;99.90;;;;;;6260656;22;20291;-92
2021/08/31 02:03:30;;;;;;;;;;;13.20;99.90;;;;;;6282584;22;20009;-91
2021/08/31 02:06:19;;;;;;;;;;;13.20;99.90;;;;;;6262747;22;19927;-90
2021/08/31 02:09:09;;;;;;;;;;;13.20;99.90;;;;;;6277396;22;19936;-92
2021/08/31 02:11:59;;;;;;;;;;;13.20;99.90;;;;;;6261003;22;19919;-92
2021/08/31 02:14:47;;;;;;;;;;;13.20;99.90;;;;;;6259107;22;19989;-91
2021/08/31 02:17:50;;;;;;;;;;;13.20;99.90;;;;;;6237295;22;19978;-93
2021/08/31 02:20:57;;;;;;;;;;;13.20;99.90;;;;;;6261319;22;19969;-92
2021/08/31 02:23:52;;;;;;;;;;;13.20;99.90;;;;;;6238973;22;20330;-91
2021/08/31 02:27:05;;;;;;;;;;;13.20;99.90;;;;;;6169200;23;19924;-91
2021/08/31 02:29:53;;;;;;;;;;;13.20;99.90;;;;;;6167500;23;19920;-91
2021/08/31 02:32:48;;;;;;;;;;;13.10;99.90;;;;;;6170449;23;20260;-91
2021/08/31 02:35:54;;;;;;;;;;;;;;;;;;;;;
2021/08/31 02:38:53;;;;;;;;;;;13.00;99.90;;;;;;6186731;23;19920;-92
2021/08/31 02:41:40;;;;;;;;;;;13.00;99.90;;;;;;6184578;23;19920;-90
2021/08/31 02:44:40;;;;;;;;;;;12.90;99.90;;;;;;6185548;23;19928;-91
2021/08/31 02:47:28;;;;;;;;;;;12.90;99.90;;;;;;6195347;23;19970;-90
2021/08/31 02:50:38;;;;;;;;;;;12.90;99.90;;;;;;6181107;23;19920;-91
2021/08/31 02:53:26;;;;;;;;;;;12.90;99.90;;;;;;6188159;23;19908;-89
2021/08/31 02:56:17;;;;;;;;;;;12.90;99.90;;;;;;6209177;23;19920;-91
2021/08/31 02:59:07;;;;;;;;;;;12.90;99.90;;;;;;6230987;22;19935;-92
2021/08/31 03:02:30;;;;;;;;;;;12.90;99.90;;;;;;6270387;22;19927;-92
2021/08/31 03:05:39;;;;;;;;;;;12.90;99.90;;;;;;6248194;23;19930;-91
2021/08/31 03:08:47;;;;;;;;;;;12.90;99.90;;;;;;6245160;23;19930;-90
2021/08/31 03:11:38;;;;;;;;;;;12.90;99.90;;;;;;6248411;23;19924;-89
2021/08/31 03:14:36;;;;;;;;;;;12.80;99.90;;;;;;6227073;23;19939;-89
2021/08/31 03:17:32;;;;;;;;;;;12.80;99.90;;;;;;6246955;23;19919;-90
2021/08/31 03:20:31;;;;;;;;;;;12.80;99.90;;;;;;6245528;23;19920;-89
2021/08/31 03:23:29;;;;;;;;;;;;;;;;;;;;;
2021/08/31 03:30:24;;;;;;;;;;;12.90;99.90;;;;;;6228885;23;19923;-90
2021/08/31 03:33:11;;;;;;;;;;;12.90;99.90;;;;;;6226631;22;20314;-90
2021/08/31 03:35:58;;;;;;;;;;;13.00;99.90;;;;;;6249464;22;19919;-89
2021/08/31 03:38:48;;;;;;;;;;;13.00;99.90;;;;;;6205425;23;19919;-91
2021/08/31 03:41:38;;;;;;;;;;;13.00;99.90;;;;;;6204877;23;19947;-92
2021/08/31 03:44:39;;;;;;;;;;;;;;;;;;;;;
2021/08/31 03:47:29;;;;;;;;;;;13.00;99.90;;;;;;6229729;23;19919;-91
2021/08/31 03:50:27;;;;;;;;;;;13.00;99.90;;;;;;6245661;23;19934;-91
2021/08/31 03:53:26;;;;;;;;;;;13.00;99.90;;;;;;6226166;23;19919;-91
2021/08/31 03:56:44;;;;;;;;;;;13.00;99.90;;;;;;6232276;23;20192;-89
2021/08/31 03:59:38;;;;;;;;;;;13.00;99.90;;;;;;6226142;23;20001;-91
2021/08/31 04:09:40;;;;;;;;;;;13.00;99.90;;;;;;6191034;23;19995;-90
2021/08/31 04:12:46;;;;;;;;;;;13.00;99.90;;;;;;6249621;23;19931;-92
2021/08/31 04:15:53;;;;;;;;;;;13.00;99.90;;;;;;6127408;23;19995;-91
2021/08/31 04:18:52;;;;;;;;;;;;;;;;;;;;;
2021/08/31 04:21:57;;;;;;;;;;;13.00;99.90;;;;;;6140961;23;19924;-89
2021/08/31 04:24:47;;;;;;;;;;;13.00;99.90;;;;;;6115984;23;19957;-90
2021/08/31 04:28:07;;;;;;;;;;;;;;;;;;;;;
2021/08/31 04:31:18;;;;;;;;;;;12.90;99.90;;;;;;6023279;23;20322;-89
2021/08/31 04:34:26;;;;;;;;;;;13.00;99.90;;;;;;6122504;23;19931;-91
2021/08/31 04:37:34;;;;;;;;;;;12.90;99.90;;;;;;6131444;23;19948;-90
2021/08/31 04:40:32;;;;;;;;;;;12.90;99.90;;;;;;6134065;23;19921;-92
2021/08/31 04:43:27;;;;;;;;;;;12.90;99.90;;;;;;6134261;23;19921;-90
2021/08/31 04:46:14;;;;;;;;;;;12.90;99.90;;;;;;6109639;23;20315;-94
2021/08/31 04:49:03;;;;;;;;;;;12.90;99.90;;;;;;6198462;23;19923;-92
2021/08/31 04:52:22;;;;;;;;;;;;;;;;;;;;;
2021/08/31 04:55:35;;;;;;;;;;;12.90;99.90;;;;;;6253635;23;20310;-91
2021/08/31 04:58:35;;;;;;;;;;;12.90;99.90;;;;;;6234488;23;19931;-91
2021/08/31 05:01:58;;;;;;;;;;;12.90;99.90;;;;;;6256143;23;20283;-93
2021/08/31 05:05:00;;;;;;;;;;;12.90;99.90;;;;;;6230108;23;19923;-94
2021/08/31 05:08:44;;;;;;;;;;;12.90;99.90;;;;;;6229174;23;19920;-91
2021/08/31 05:11:38;;;;;;;;;;;12.90;99.90;;;;;;6249715;22;19963;-92
2021/08/31 05:14:52;;;;;;;;;;;12.90;99.90;;;;;;6248861;23;20274;-90
2021/08/31 05:21:29;;;;;;;;;;;;;;;;;;;;;
2021/08/31 05:28:36;;;;;;;;;;;;;;;;;;;;;
2021/08/31 05:47:14;;;;;;;;;;;;;;;;;;;;;
2021/08/31 05:58:24;;;;;;;;;;;13.10;99.90;;;;;;5984902;24;20291;-90
2021/08/31 06:01:38;;;;;;;;;;;;;;;;;;;;;
2021/08/31 06:08:58;;;;;;;;;;;13.20;99.90;;;;;;5889712;24;19923;-92
2021/08/31 06:12:03;;;;;;;;;;;13.30;99.90;;;;;;5891433;24;19915;-90
2021/08/31 06:15:44;;;;;;;;;;;13.30;99.90;;;;;;5913754;24;19911;-89
2021/08/31 06:19:04;;;;;;;;;;;13.40;99.90;;;;;;5970280;24;19975;-90
2021/08/31 06:29:26;;;;;;;;;;;13.80;99.90;;;;;;6212405;22;19972;-93
2021/08/31 06:32:56;;;;;;;;;;;13.90;99.90;;;;;;6256706;22;19927;-86
2021/08/31 06:35:46;;;;;;;;;;;13.90;99.90;;;;;;6255532;22;19927;-87
2021/08/31 06:38:53;;;;;;;;;;;13.90;99.90;;;;;;6258854;22;19919;-89
2021/08/31 06:41:43;;;;;;;;;;;13.90;99.90;;;;;;6276217;22;20303;-88
2021/08/31 06:44:30;;;;;;;;;;;14.00;99.90;;;;;;6253194;22;19926;-87
2021/08/31 06:47:20;;;;;;;;;;;14.00;99.90;;;;;;6252620;22;20019;-87
2021/08/31 06:50:15;;;;;;;;;;;13.90;99.90;;;;;;6280596;22;19934;-88
2021/08/31 06:53:02;;;;;;;;;;;13.90;99.90;;;;;;6277976;22;20266;-89
2021/08/31 06:55:49;;;;;;;;;;;13.80;99.90;;;;;;6276196;22;20175;-88
2021/08/31 06:58:36;;;;;;;;;;;13.80;99.90;;;;;;6253414;22;19930;-87
2021/08/31 07:01:23;;;;;;;;;;;13.90;99.90;;;;;;6275656;22;19923;-87
2021/08/31 07:04:10;;;;;;;;;;;14.10;99.90;;;;;;6278786;22;19934;-87
2021/08/31 07:06:58;;;;;;;;;;;14.20;99.90;;;;;;6254811;22;20055;-89
2021/08/31 07:09:45;;;;;;;;;;;14.40;99.90;;;;;;6232375;22;19963;-89
2021/08/31 07:12:33;;;;;;;;;;;14.40;99.90;;;;;;6254748;22;19919;-87
2021/08/31 07:15:20;;;;;;;;;;;14.40;99.90;;;;;;6256119;22;20207;-87
2021/08/31 07:18:08;;;;;;;;;;;14.50;99.90;;;;;;6255127;22;19923;-88
2021/08/31 07:20:55;;;;;;;;;;;14.80;99.90;;;;;;6277999;22;20208;-87
2021/08/31 07:23:42;;;;;;;;;;;15.10;99.90;;;;;;6276669;22;19991;-87
2021/08/31 07:26:29;;;;;;;;;;;15.30;99.90;;;;;;6276961;22;19958;-88
2021/08/31 07:29:19;;;;;;;;;;;15.40;99.90;;;;;;6276662;22;19919;-91
2021/08/31 07:32:17;;;;;;;;;;;15.60;99.90;;;;;;6279335;22;19919;-91
2021/08/31 07:39:31;;;;;;;;;;;;;;;;;;;;;
2021/08/31 07:43:11;;;;;;;;;;;;;;;;;;;;;
2021/08/31 08:06:49;;;;;;;;;;;15.80;99.90;;;;;;6097375;23;19909;-90
2021/08/31 08:13:44;;;;;;;;;;;17.50;99.90;;;;;;5913192;24;19915;-91
2021/08/31 08:16:56;;;;;;;;;;;17.30;99.90;;;;;;5941713;23;19930;-92
2021/08/31 08:19:43;;;;;;;;;;;17.10;99.90;;;;;;6052065;23;19922;-90
2021/08/31 08:23:03;;;;;;;;;;;17.00;99.90;;;;;;6048786;23;19921;-90
2021/08/31 08:56:43;;;;;;;;;;;18.40;99.90;;;;;;6309658;22;19967;-93
2021/08/31 09:00:22;;;;;;;;;;;;;;;;;;;;;
2021/08/31 09:07:31;;;;;;;;;;;;;;;;;;;;;
2021/08/31 09:32:25;;;;;;;;;;;18.90;99.90;;;;;;6192292;23;19908;-89
2021/08/31 09:35:19;;;;;;;;;;;18.80;99.90;;;;;;6217941;23;19923;-90
2021/08/31 09:50:21;;;;;;;;;;;;;;;;;;;;;
2021/08/31 10:05:24;;;;;;;;;;;22.90;99.90;;;;;;6043407;23;19957;-92
2021/08/31 10:20:27;;;;;;;;;;;20.10;99.90;;;;;;6049762;23;20222;-91
2021/08/31 10:50:30;;;;;;;;;;;18.80;99.90;;;;;;6007105;23;19966;-91
2021/08/31 12:13:10;;;;;;;;;;;;;;;;;;;;;
2021/08/31 12:44:39;;;;;;;;;;;;;;;;;;;;;
2021/08/31 14:19:52;;;;;;;;;;;28.10;62.10;;;;;;6298965;22;19919;-93
2021/08/31 14:29:59;;;;;;;;;;;29.20;58.70;;;;;;6261910;22;19920;-91
2021/08/31 14:40:19;;;;;;;;;;;25.70;64.00;;;;;;6238659;23;20018;-92
2021/08/31 14:43:07;;;;;;;;;;;25.30;67.80;;;;;;6248570;23;19923;-91
2021/08/31 14:46:05;;;;;;;;;;;26.00;62.80;;;;;;6250235;23;19955;-91
2021/08/31 14:48:53;;;;;;;;;;;25.90;64.20;;;;;;6225113;22;19934;-90
2021/08/31 14:52:21;;;;;;;;;;;26.00;64.70;;;;;;6054321;23;20014;-92
2021/08/31 14:55:18;;;;;;;;;;;25.40;66.30;;;;;;6050973;23;20284;-91
2021/08/31 14:58:09;;;;;;;;;;;24.80;70.10;;;;;;5956863;23;19923;-90
2021/08/31 15:01:37;;;;;;;;;;;24.40;70.50;;;;;;5955418;23;19931;-92
2021/08/31 15:04:52;;;;;;;;;;;;;;;;;;;;;
2021/08/31 15:08:21;;;;;;;;;;;22.20;79.10;;;;;;5952113;24;19982;-90
2021/08/31 15:11:15;;;;;;;;;;;21.20;84.10;;;;;;5949709;24;19923;-91
2021/08/31 15:14:05;;;;;;;;;;;20.40;88.00;;;;;;5954343;23;20504;-91
2021/08/31 15:16:57;;;;;;;;;;;19.90;91.10;;;;;;6198865;23;20004;-91
2021/08/31 15:20:02;;;;;;;;;;;19.30;93.10;;;;;;6244011;22;20009;-91
2021/08/31 15:22:56;;;;;;;;;;;19.10;95.60;;;;;;6247827;23;19927;-91
2021/08/31 15:25:46;;;;;;;;;;;18.70;97.60;;;;;;6245256;23;19998;-91
2021/08/31 15:29:37;;;;;;;;;;;18.50;99.90;;;;;;6242081;23;19939;-91
2021/08/31 15:32:18;;;;;;;;;;;18.40;99.90;;;;;;6235251;23;19920;-91
2021/08/31 15:35:06;;;;;;;;;;;18.20;99.90;;;;;;6244967;23;19920;-87
2021/08/31 15:37:55;;;;;;;;;;;18.10;99.90;;;;;;6248937;23;19920;-90
2021/08/31 15:40:42;;;;;;;;;;;18.10;99.90;;;;;;6243427;23;20026;-90
2021/08/31 15:43:29;;;;;;;;;;;18.00;99.90;;;;;;6247189;23;19924;-90
2021/08/31 15:46:17;;;;;;;;;;;18.00;99.90;;;;;;6247077;23;19924;-90
2021/08/31 15:49:04;;;;;;;;;;;18.00;99.90;;;;;;6246992;23;19930;-90
2021/08/31 15:51:54;;;;;;;;;;;18.10;99.90;;;;;;6246452;23;19933;-90
2021/08/31 15:54:55;;;;;;;;;;;18.00;99.90;;;;;;6247835;23;19951;-90
2021/08/31 15:57:42;;;;;;;;;;;17.90;99.90;;;;;;6247141;23;19920;-90
2021/08/31 16:00:30;;;;;;;;;;;17.70;99.90;;;;;;6245111;23;19941;-88
2021/08/31 16:03:18;;;;;;;;;;;17.70;99.90;;;;;;6246908;23;19927;-92
2021/08/31 16:06:05;;;;;;;;;;;17.60;99.90;;;;;;6224733;23;19919;-90
2021/08/31 16:08:52;;;;;;;;;;;17.60;99.90;;;;;;6246923;22;20322;-90
2021/08/31 16:11:40;;;;;;;;;;;17.60;99.90;;;;;;6242965;23;19928;-89
2021/08/31 16:14:27;;;;;;;;;;;18.20;99.90;;;;;;6224054;23;19938;-89
2021/08/31 16:17:18;;;;;;;;;;;19.00;99.90;;;;;;6239510;23;19924;-92
2021/08/31 16:20:08;;;;;;;;;;;19.70;99.90;;;;;;6241699;23;20057;-89
2021/08/31 16:22:57;;;;;;;;;;;20.00;99.90;;;;;;6247509;22;19974;-90
2021/08/31 16:25:44;;;;;;;;;;;20.10;99.90;;;;;;6243541;23;20650;-91
2021/08/31 16:28:32;;;;;;;;;;;20.50;99.90;;;;;;6246455;23;19924;-91
2021/08/31 16:31:19;;;;;;;;;;;20.60;99.90;;;;;;6232181;23;19920;-91
2021/08/31 16:34:07;;;;;;;;;;;20.40;99.90;;;;;;6244661;23;19930;-90
2021/08/31 16:36:54;;;;;;;;;;;19.90;99.90;;;;;;6243956;23;20255;-90
2021/08/31 16:39:41;;;;;;;;;;;19.40;99.90;;;;;;6247741;22;20022;-90
2021/08/31 16:42:32;;;;;;;;;;;18.90;99.90;;;;;;6248121;23;19924;-90
2021/08/31 16:45:24;;;;;;;;;;;18.50;99.90;;;;;;6226837;23;19936;-90
2021/08/31 16:48:12;;;;;;;;;;;17.90;99.90;;;;;;6239123;23;20299;-89
2021/08/31 16:50:59;;;;;;;;;;;17.50;99.90;;;;;;6246077;23;19923;-90
2021/08/31 16:53:46;;;;;;;;;;;17.30;99.90;;;;;;6223613;23;19927;-89
2021/08/31 16:56:33;;;;;;;;;;;17.10;99.90;;;;;;6220984;23;20279;-92
2021/08/31 16:59:20;;;;;;;;;;;16.90;99.90;;;;;;6244517;23;19923;-89
2021/08/31 17:02:11;;;;;;;;;;;16.80;99.90;;;;;;6243450;23;19977;-92
2021/08/31 17:05:22;;;;;;;;;;;;;;;;;;;;;
2021/08/31 17:09:13;;;;;;;;;;;16.40;99.90;;;;;;6153306;23;19909;-92
2021/08/31 17:12:32;;;;;;;;;;;16.20;99.90;;;;;;6097694;23;19917;-89
2021/08/31 17:15:22;;;;;;;;;;;16.10;99.90;;;;;;6153433;23;19944;-89
2021/08/31 17:18:15;;;;;;;;;;;16.00;99.90;;;;;;6199709;23;21123;-90
2021/08/31 17:21:26;;;;;;;;;;;15.80;99.90;;;;;;6213406;23;19935;-90
2021/08/31 17:24:34;;;;;;;;;;;15.70;99.90;;;;;;6215880;23;19916;-90
2021/08/31 17:27:38;;;;;;;;;;;15.50;99.90;;;;;;6153531;23;20281;-89
2021/08/31 17:30:31;;;;;;;;;;;15.40;99.90;;;;;;6129835;23;19922;-91
2021/08/31 17:33:19;;;;;;;;;;;15.40;99.90;;;;;;6140288;23;20034;-91
2021/08/31 17:36:08;;;;;;;;;;;15.30;99.90;;;;;;6184045;23;19979;-89
2021/08/31 17:39:27;;;;;;;;;;;;;;;;;;;;;
2021/08/31 17:43:27;;;;;;;;;;;;;;;;;;;;;
2021/08/31 17:46:35;;;;;;;;;;;14.90;99.90;;;;;;6127669;23;19948;-91
2021/08/31 17:49:31;;;;;;;;;;;14.80;99.90;;;;;;6109026;23;19948;-92
2021/08/31 17:52:22;;;;;;;;;;;14.60;99.90;;;;;;6187708;23;20181;-89
2021/08/31 17:55:13;;;;;;;;;;;14.50;99.90;;;;;;6184061;23;19924;-90
2021/08/31 17:58:00;;;;;;;;;;;14.40;99.90;;;;;;6165567;23;19920;-89
2021/08/31 18:00:48;;;;;;;;;;;14.20;99.90;;;;;;6145398;23;20267;-90
2021/08/31 18:03:37;;;;;;;;;;;14.10;99.90;;;;;;6167642;23;20020;-91
2021/08/31 18:06:25;;;;;;;;;;;14.00;99.90;;;;;;6166194;23;20362;-90
2021/08/31 18:09:12;;;;;;;;;;;13.80;99.90;;;;;;6187814;23;19935;-90
2021/08/31 18:12:00;;;;;;;;;;;13.80;99.90;;;;;;6201381;23;19931;-90
2021/08/31 18:14:47;;;;;;;;;;;13.70;99.90;;;;;;6202448;23;19939;-88
2021/08/31 18:17:34;;;;;;;;;;;13.60;99.90;;;;;;6212452;22;19976;-88
2021/08/31 18:20:22;;;;;;;;;;;13.50;99.90;;;;;;6188037;23;19925;-90
2021/08/31 18:23:11;;;;;;;;;;;13.40;99.90;;;;;;6184171;23;19923;-91
2021/08/31 18:25:59;;;;;;;;;;;13.30;99.90;;;;;;6186582;23;19944;-92
2021/08/31 18:28:46;;;;;;;;;;;13.30;99.90;;;;;;6192431;23;20199;-89
2021/08/31 18:31:33;;;;;;;;;;;13.20;99.90;;;;;;6215532;23;19908;-89
2021/08/31 18:34:22;;;;;;;;;;;13.20;99.90;;;;;;6199065;23;20330;-91
2021/08/31 18:37:10;;;;;;;;;;;13.10;99.90;;;;;;6200855;23;19920;-91
2021/08/31 18:39:57;;;;;;;;;;;12.90;99.90;;;;;;6221462;23;19966;-89
2021/08/31 18:42:44;;;;;;;;;;;12.80;99.90;;;;;;6216230;23;19920;-92
2021/08/31 18:45:32;;;;;;;;;;;12.70;99.90;;;;;;6219570;23;19950;-91
2021/08/31 18:48:19;;;;;;;;;;;12.70;99.90;;;;;;6169440;23;20223;-90
2021/08/31 18:51:10;;;;;;;;;;;12.60;99.90;;;;;;6217564;23;19951;-92
2021/08/31 18:53:59;;;;;;;;;;;12.60;99.90;;;;;;6194481;23;19946;-91
2021/08/31 18:56:46;;;;;;;;;;;12.60;99.90;;;;;;6214033;23;19924;-91
2021/08/31 18:59:34;;;;;;;;;;;12.50;99.90;;;;;;6216724;23;19964;-89
2021/08/31 19:02:21;;;;;;;;;;;12.50;99.90;;;;;;6215305;23;19924;-90
2021/08/31 19:05:23;;;;;;;;;;;12.40;99.90;;;;;;6163819;23;20303;-92
2021/08/31 19:08:11;;;;;;;;;;;12.40;99.90;;;;;;6181813;23;19932;-91
2021/08/31 19:10:58;;;;;;;;;;;12.30;99.90;;;;;;6222155;23;19992;-91
2021/08/31 19:13:45;;;;;;;;;;;12.30;99.90;;;;;;6202641;23;19928;-92
2021/08/31 19:16:32;;;;;;;;;;;12.40;99.90;;;;;;6229213;23;19920;-92
2021/08/31 19:19:20;;;;;;;;;;;12.40;99.90;;;;;;6232235;23;19920;-93
2021/08/31 19:22:10;;;;;;;;;;;12.40;99.90;;;;;;6228965;23;19920;-91
2021/08/31 19:25:00;;;;;;;;;;;12.30;99.90;;;;;;6231662;23;19939;-91
2021/08/31 19:27:48;;;;;;;;;;;12.40;99.90;;;;;;6233435;23;19960;-92
2021/08/31 19:30:38;;;;;;;;;;;12.30;99.90;;;;;;6241770;23;19975;-91
2021/08/31 19:33:25;;;;;;;;;;;12.30;99.90;;;;;;6240403;22;20394;-91
2021/08/31 19:36:12;;;;;;;;;;;12.30;99.90;;;;;;6217859;23;19908;-91
2021/08/31 19:39:03;;;;;;;;;;;12.40;99.90;;;;;;6222408;22;19907;-91
2021/08/31 19:41:50;;;;;;;;;;;12.40;99.90;;;;;;6219390;23;19916;-91
2021/08/31 19:44:37;;;;;;;;;;;12.40;99.90;;;;;;6219737;23;19978;-90
2021/08/31 19:47:25;;;;;;;;;;;12.50;99.90;;;;;;6241310;23;19928;-91
2021/08/31 19:50:12;;;;;;;;;;;12.50;99.90;;;;;;6238560;23;19935;-91
2021/08/31 19:52:59;;;;;;;;;;;12.50;99.90;;;;;;6218566;23;19924;-91
2021/08/31 19:55:46;;;;;;;;;;;12.50;99.90;;;;;;6215360;23;20335;-91
2021/08/31 19:58:36;;;;;;;;;;;12.50;99.90;;;;;;6217495;23;19924;-91
2021/08/31 20:01:26;;;;;;;;;;;12.50;99.90;;;;;;6194789;23;20294;-92
2021/08/31 20:04:15;;;;;;;;;;;12.40;99.90;;;;;;6216448;23;19999;-89
2021/08/31 20:07:02;;;;;;;;;;;12.50;99.90;;;;;;6217615;23;20003;-90
2021/08/31 20:09:49;;;;;;;;;;;12.50;99.90;;;;;;6195920;23;19935;-92
2021/08/31 20:12:39;;;;;;;;;;;12.50;99.90;;;;;;6216195;23;20245;-91
2021/08/31 20:15:29;;;;;;;;;;;12.50;99.90;;;;;;6197800;23;19931;-90
2021/08/31 20:18:17;;;;;;;;;;;12.50;99.90;;;;;;6217702;23;19920;-92
2021/08/31 20:21:04;;;;;;;;;;;12.50;99.90;;;;;;6221691;23;20231;-90
2021/08/31 20:23:52;;;;;;;;;;;12.50;99.90;;;;;;6217589;23;19978;-91
2021/08/31 20:26:39;;;;;;;;;;;12.50;99.90;;;;;;6217462;23;19927;-92
2021/08/31 20:29:34;;;;;;;;;;;12.50;99.90;;;;;;6187494;23;20284;-92
2021/08/31 20:32:21;;;;;;;;;;;12.50;99.90;;;;;;6166980;23;19943;-92
2021/08/31 20:35:09;;;;;;;;;;;12.40;99.90;;;;;;6186765;23;19921;-91
2021/08/31 20:37:56;;;;;;;;;;;12.30;99.90;;;;;;6188819;23;19988;-92
2021/08/31 20:40:43;;;;;;;;;;;12.20;99.90;;;;;;6187151;23;19928;-92
2021/08/31 20:43:30;;;;;;;;;;;12.20;99.90;;;;;;6187635;23;20023;-92
2021/08/31 20:46:19;;;;;;;;;;;12.10;99.90;;;;;;6183508;23;19951;-91
2021/08/31 20:49:09;;;;;;;;;;;12.10;99.90;;;;;;6188801;23;19924;-91
2021/08/31 20:51:56;;;;;;;;;;;12.00;99.90;;;;;;6181049;23;19975;-90
2021/08/31 20:54:43;;;;;;;;;;;12.00;99.90;;;;;;6165744;23;19935;-90
2021/08/31 20:57:31;;;;;;;;;;;11.90;99.90;;;;;;6188896;23;19920;-91
2021/08/31 21:00:21;;;;;;;;;;;11.90;99.90;;;;;;6171208;23;19927;-91
2021/08/31 21:03:11;;;;;;;;;;;11.80;99.90;;;;;;6196372;23;19947;-90
2021/08/31 21:06:01;;;;;;;;;;;11.80;99.90;;;;;;6191060;23;19971;-91
2021/08/31 21:08:49;;;;;;;;;;;11.70;99.90;;;;;;6191454;23;19924;-91
2021/08/31 21:11:39;;;;;;;;;;;11.70;99.90;;;;;;6193699;23;19924;-91
2021/08/31 21:14:29;;;;;;;;;;;11.60;99.90;;;;;;6199380;23;19949;-91
2021/08/31 21:17:16;;;;;;;;;;;11.60;99.90;;;;;;6196649;23;19948;-91
2021/08/31 21:20:03;;;;;;;;;;;11.60;99.90;;;;;;6175566;23;19928;-90
2021/08/31 21:22:51;;;;;;;;;;;11.60;99.90;;;;;;6174706;23;19924;-92
2021/08/31 21:25:40;;;;;;;;;;;11.60;99.90;;;;;;6169271;23;19920;-91
2021/08/31 21:28:28;;;;;;;;;;;11.60;99.90;;;;;;6190095;23;19920;-90
2021/08/31 21:31:15;;;;;;;;;;;11.60;99.90;;;;;;6187044;23;20308;-90
2021/08/31 21:34:02;;;;;;;;;;;11.60;99.90;;;;;;6121602;23;20270;-88
2021/08/31 21:36:52;;;;;;;;;;;11.50;99.90;;;;;;6044525;23;19933;-92
2021/08/31 21:39:41;;;;;;;;;;;11.50;99.90;;;;;;6192904;23;19967;-92
2021/08/31 21:42:28;;;;;;;;;;;11.50;99.90;;;;;;6153592;23;19932;-91
2021/08/31 21:45:18;;;;;;;;;;;11.40;99.90;;;;;;6191775;23;19920;-90
2021/08/31 21:48:08;;;;;;;;;;;11.30;99.90;;;;;;6122053;23;20309;-91
2021/08/31 21:50:55;;;;;;;;;;;11.30;99.90;;;;;;6042701;23;19921;-90
2021/08/31 21:53:43;;;;;;;;;;;11.30;99.90;;;;;;6042097;23;19930;-91
2021/08/31 21:56:30;;;;;;;;;;;11.30;99.90;;;;;;6041003;23;19922;-91
2021/08/31 21:59:17;;;;;;;;;;;11.30;99.90;;;;;;6042708;23;19972;-90
2021/08/31 22:02:05;;;;;;;;;;;11.30;99.90;;;;;;6041826;23;19926;-91
2021/08/31 22:04:52;;;;;;;;;;;11.30;99.90;;;;;;6022678;23;19929;-92
2021/08/31 22:07:39;;;;;;;;;;;11.20;99.90;;;;;;6050309;23;19945;-90
2021/08/31 22:10:26;;;;;;;;;;;11.20;99.90;;;;;;6054895;23;19921;-91
2021/08/31 22:13:13;;;;;;;;;;;11.10;99.90;;;;;;6055843;23;19925;-91
2021/08/31 22:16:03;;;;;;;;;;;11.10;99.90;;;;;;6207802;23;19976;-89
2021/08/31 22:18:50;;;;;;;;;;;11.10;99.90;;;;;;6205590;23;19908;-90
2021/08/31 22:21:40;;;;;;;;;;;11.10;99.90;;;;;;6206542;23;19908;-90
2021/08/31 22:24:27;;;;;;;;;;;11.10;99.90;;;;;;6183690;23;20260;-92
2021/08/31 22:27:14;;;;;;;;;;;11.00;99.90;;;;;;6176866;23;19926;-90
2021/08/31 22:30:03;;;;;;;;;;;10.90;99.90;;;;;;6077226;23;19953;-89
2021/08/31 22:32:50;;;;;;;;;;;10.90;99.90;;;;;;6072732;23;20026;-92
2021/08/31 22:35:37;;;;;;;;;;;10.90;99.90;;;;;;6151733;23;19977;-92
2021/08/31 22:38:24;;;;;;;;;;;10.80;99.90;;;;;;6067594;23;19922;-91
2021/08/31 22:41:12;;;;;;;;;;;10.80;99.90;;;;;;6070500;23;19926;-91
2021/08/31 22:44:05;;;;;;;;;;;10.80;99.90;;;;;;6079966;23;19929;-90
2021/08/31 22:46:52;;;;;;;;;;;10.80;99.90;;;;;;6080000;23;19994;-90
2021/08/31 22:49:39;;;;;;;;;;;10.80;99.90;;;;;;6087758;23;19925;-89
2021/08/31 22:52:26;;;;;;;;;;;10.70;99.90;;;;;;6093948;23;19909;-90
2021/08/31 22:55:14;;;;;;;;;;;10.70;99.90;;;;;;6088771;23;19920;-92
2021/08/31 22:58:01;;;;;;;;;;;10.70;99.90;;;;;;6090304;23;19945;-91
2021/08/31 23:04:34;;;;;;;;;;;10.70;99.90;;;;;;6091364;23;19902;-92
2021/08/31 23:07:21;;;;;;;;;;;10.80;99.90;;;;;;6090375;23;19910;-92
2021/08/31 23:10:09;;;;;;;;;;;10.70;99.90;;;;;;6167751;23;19922;-91
2021/08/31 23:12:59;;;;;;;;;;;10.70;99.90;;;;;;6079372;23;20005;-92
2021/08/31 23:15:46;;;;;;;;;;;10.60;99.90;;;;;;6076085;23;20000;-91
2021/08/31 23:18:33;;;;;;;;;;;10.50;99.90;;;;;;6070489;23;19932;-91
2021/08/31 23:21:21;;;;;;;;;;;10.50;99.90;;;;;;6081597;23;19909;-92
2021/08/31 23:24:08;;;;;;;;;;;10.40;99.90;;;;;;6164879;23;20134;-91
2021/08/31 23:26:55;;;;;;;;;;;10.30;99.90;;;;;;6084029;23;19956;-91
2021/08/31 23:29:47;;;;;;;;;;;10.20;99.90;;;;;;6219663;23;19919;-92
2021/08/31 23:32:35;;;;;;;;;;;10.20;99.90;;;;;;6197204;23;20218;-91
2021/08/31 23:35:22;;;;;;;;;;;10.10;99.90;;;;;;6218881;23;20275;-92
2021/08/31 23:38:09;;;;;;;;;;;10.20;99.90;;;;;;6196468;23;19982;-92
2021/08/31 23:40:56;;;;;;;;;;;10.20;99.90;;;;;;6195937;23;19924;-91
2021/08/31 23:43:43;;;;;;;;;;;10.10;99.90;;;;;;6218017;23;19920;-92
2021/08/31 23:46:30;;;;;;;;;;;10.10;99.90;;;;;;6198447;23;19965;-92
2021/08/31 23:49:17;;;;;;;;;;;10.00;99.90;;;;;;6218472;23;19948;-91
2021/08/31 23:52:05;;;;;;;;;;;10.00;99.90;;;;;;6220658;22;19920;-92
2021/08/31 23:54:52;;;;;;;;;;;10.00;99.90;;;;;;6218230;23;19978;-93
2021/08/31 23:57:41;;;;;;;;;;;9.90;99.90;;;;;;6196255;23;19924;-92
